sensor_id;sensor_type;location;lat;lon;timestamp;noise_LAeq;noise_LA_min;noise_LA_max;noise_LA01;noise_LA95
71020;Laerm;58902;51.436;5.980;2022-12-13T00:00:10;30.55;29.49;31.66;;
71020;Laerm;58902;51.436;5.980;2022-12-13T00:00:23;30.66;29.40;32.27;;
71020;Laerm;58902;51.436;5.980;2022-12-13T00:00:34;30.56;29.12;31.69;;
71020;Laerm;58902;51.436;5.980;2022-12-13T00:00:45;30.57;29.55;31.74;;
71020;Laerm;58902;51.436;5.980;2022-12-13T00:00:55;30.59;29.45;32.25;;
71020;Laerm;58902;51.436;5.980;2022-12-13T00:01:12;40.59;28.95;52.71;;
71020;Laerm;58902;51.436;5.980;2022-12-13T00:01:23;30.62;29.29;33.39;;
71020;Laerm;58902;51.436;5.980;2022-12-13T00:01:34;30.30;29.13;31.59;;
71020;Laerm;58902;51.436;5.980;2022-12-13T00:01:45;30.25;29.16;31.56;;
71020;Laerm;58902;51.436;5.980;2022-12-13T00:01:56;30.67;29.27;31.71;;
71020;Laerm;58902;51.436;5.980;2022-12-13T00:02:06;30.76;29.42;31.88;;
71020;Laerm;58902;51.436;5.980;2022-12-13T00:02:17;30.90;29.86;32.33;;
71020;Laerm;58902;51.436;5.980;2022-12-13T00:02:27;30.59;29.50;32.44;;
71020;Laerm;58902;51.436;5.980;2022-12-13T00:02:37;30.65;29.73;31.86;;
71020;Laerm;58902;51.436;5.980;2022-12-13T00:02:48;30.67;29.27;32.17;;
71020;Laerm;58902;51.436;5.980;2022-12-13T00:02:58;31.18;29.92;32.86;;
71020;Laerm;58902;51.436;5.980;2022-12-13T00:03:08;31.59;30.31;33.07;;
71020;Laerm;58902;51.436;5.980;2022-12-13T00:03:19;31.70;30.49;33.45;;
71020;Laerm;58902;51.436;5.980;2022-12-13T00:03:29;32.86;30.43;35.20;;
71020;Laerm;58902;51.436;5.980;2022-12-13T00:03:40;32.71;31.01;34.10;;
71020;Laerm;58902;51.436;5.980;2022-12-13T00:03:53;32.18;30.50;33.76;;
71020;Laerm;58902;51.436;5.980;2022-12-13T00:04:04;35.71;30.69;55.67;;
71020;Laerm;58902;51.436;5.980;2022-12-13T00:04:15;33.18;32.05;35.00;;
71020;Laerm;58902;51.436;5.980;2022-12-13T00:04:26;32.91;30.73;42.26;;
71020;Laerm;58902;51.436;5.980;2022-12-13T00:04:36;31.03;29.83;32.82;;
71020;Laerm;58902;51.436;5.980;2022-12-13T00:04:47;31.19;29.51;32.54;;
71020;Laerm;58902;51.436;5.980;2022-12-13T00:04:57;34.22;30.30;37.10;;
71020;Laerm;58902;51.436;5.980;2022-12-13T00:05:07;35.97;34.87;36.93;;
71020;Laerm;58902;51.436;5.980;2022-12-13T00:05:18;35.10;34.00;36.53;;
71020;Laerm;58902;51.436;5.980;2022-12-13T00:05:28;34.32;30.62;40.58;;
71020;Laerm;58902;51.436;5.980;2022-12-13T00:05:42;31.71;29.97;32.67;;
71020;Laerm;58902;51.436;5.980;2022-12-13T00:05:53;31.54;30.20;32.85;;
71020;Laerm;58902;51.436;5.980;2022-12-13T00:06:04;32.29;30.79;33.40;;
71020;Laerm;58902;51.436;5.980;2022-12-13T00:06:15;32.15;31.18;33.16;;
71020;Laerm;58902;51.436;5.980;2022-12-13T00:06:25;32.33;30.63;33.56;;
71020;Laerm;58902;51.436;5.980;2022-12-13T00:06:36;33.28;31.31;35.82;;
71020;Laerm;58902;51.436;5.980;2022-12-13T00:06:50;35.55;32.54;38.86;;
71020;Laerm;58902;51.436;5.980;2022-12-13T00:07:02;35.42;32.40;38.76;;
71020;Laerm;58902;51.436;5.980;2022-12-13T00:07:13;33.64;31.46;35.61;;
71020;Laerm;58902;51.436;5.980;2022-12-13T00:07:23;34.00;31.51;48.88;;
71020;Laerm;58902;51.436;5.980;2022-12-13T00:07:34;33.24;30.84;35.20;;
71020;Laerm;58902;51.436;5.980;2022-12-13T00:07:44;33.24;31.37;34.90;;
71020;Laerm;58902;51.436;5.980;2022-12-13T00:07:54;32.04;30.73;33.48;;
71020;Laerm;58902;51.436;5.980;2022-12-13T00:08:05;32.95;31.47;34.59;;
71020;Laerm;58902;51.436;5.980;2022-12-13T00:08:15;32.10;30.58;33.76;;
71020;Laerm;58902;51.436;5.980;2022-12-13T00:08:26;31.98;30.42;33.32;;
71020;Laerm;58902;51.436;5.980;2022-12-13T00:08:37;32.86;31.59;34.12;;
71020;Laerm;58902;51.436;5.980;2022-12-13T00:08:47;32.13;30.62;35.43;;
71020;Laerm;58902;51.436;5.980;2022-12-13T00:08:58;31.77;30.32;33.15;;
71020;Laerm;58902;51.436;5.980;2022-12-13T00:09:09;31.86;30.37;33.30;;
71020;Laerm;58902;51.436;5.980;2022-12-13T00:09:19;31.94;30.44;33.27;;
71020;Laerm;58902;51.436;5.980;2022-12-13T00:09:30;32.87;30.03;38.53;;
71020;Laerm;58902;51.436;5.980;2022-12-13T00:09:40;33.63;31.15;34.98;;
71020;Laerm;58902;51.436;5.980;2022-12-13T00:09:52;34.33;32.57;36.26;;
71020;Laerm;58902;51.436;5.980;2022-12-13T00:10:03;33.02;30.59;35.80;;
71020;Laerm;58902;51.436;5.980;2022-12-13T00:10:13;37.06;32.83;46.16;;
71020;Laerm;58902;51.436;5.980;2022-12-13T00:10:23;46.11;36.03;50.87;;
71020;Laerm;58902;51.436;5.980;2022-12-13T00:10:34;36.62;33.92;38.82;;
71020;Laerm;58902;51.436;5.980;2022-12-13T00:10:44;35.08;33.53;36.83;;
71020;Laerm;58902;51.436;5.980;2022-12-13T00:10:58;33.90;30.20;35.36;;
71020;Laerm;58902;51.436;5.980;2022-12-13T00:11:10;31.45;30.13;33.02;;
71020;Laerm;58902;51.436;5.980;2022-12-13T00:11:21;31.97;30.11;33.83;;
71020;Laerm;58902;51.436;5.980;2022-12-13T00:11:31;32.15;30.78;33.46;;
71020;Laerm;58902;51.436;5.980;2022-12-13T00:11:42;31.20;29.34;33.13;;
71020;Laerm;58902;51.436;5.980;2022-12-13T00:11:53;31.35;29.93;32.59;;
71020;Laerm;58902;51.436;5.980;2022-12-13T00:12:03;31.69;30.37;36.10;;
71020;Laerm;58902;51.436;5.980;2022-12-13T00:12:14;30.97;29.06;33.08;;
71020;Laerm;58902;51.436;5.980;2022-12-13T00:12:25;30.55;29.13;32.14;;
71020;Laerm;58902;51.436;5.980;2022-12-13T00:12:35;30.57;29.33;31.82;;
71020;Laerm;58902;51.436;5.980;2022-12-13T00:12:46;30.68;29.39;31.84;;
71020;Laerm;58902;51.436;5.980;2022-12-13T00:12:56;31.20;30.07;32.53;;
71020;Laerm;58902;51.436;5.980;2022-12-13T00:13:06;31.25;29.63;32.93;;
71020;Laerm;58902;51.436;5.980;2022-12-13T00:13:17;30.79;29.30;32.92;;
71020;Laerm;58902;51.436;5.980;2022-12-13T00:13:27;31.18;29.77;33.34;;
71020;Laerm;58902;51.436;5.980;2022-12-13T00:13:38;31.08;29.40;45.96;;
71020;Laerm;58902;51.436;5.980;2022-12-13T00:13:48;30.47;29.26;31.79;;
71020;Laerm;58902;51.436;5.980;2022-12-13T00:13:59;31.52;29.45;34.52;;
71020;Laerm;58902;51.436;5.980;2022-12-13T00:14:09;32.05;30.03;34.48;;
71020;Laerm;58902;51.436;5.980;2022-12-13T00:14:20;31.53;29.90;32.98;;
71020;Laerm;58902;51.436;5.980;2022-12-13T00:14:31;32.58;30.56;35.95;;
71020;Laerm;58902;51.436;5.980;2022-12-13T00:14:41;31.78;29.76;33.89;;
71020;Laerm;58902;51.436;5.980;2022-12-13T00:14:52;31.78;30.00;34.24;;
71020;Laerm;58902;51.436;5.980;2022-12-13T00:15:03;31.03;29.72;32.82;;
71020;Laerm;58902;51.436;5.980;2022-12-13T00:15:13;31.00;29.75;32.55;;
71020;Laerm;58902;51.436;5.980;2022-12-13T00:15:23;30.67;29.44;32.17;;
71020;Laerm;58902;51.436;5.980;2022-12-13T00:15:34;30.84;29.63;32.32;;
71020;Laerm;58902;51.436;5.980;2022-12-13T00:15:54;31.17;30.16;32.51;;
71020;Laerm;58902;51.436;5.980;2022-12-13T00:16:05;31.33;29.95;33.51;;
71020;Laerm;58902;51.436;5.980;2022-12-13T00:16:17;31.21;29.79;33.34;;
71020;Laerm;58902;51.436;5.980;2022-12-13T00:16:28;30.95;29.42;32.28;;
71020;Laerm;58902;51.436;5.980;2022-12-13T00:16:38;31.07;29.79;32.88;;
71020;Laerm;58902;51.436;5.980;2022-12-13T00:16:49;32.02;30.28;33.45;;
71020;Laerm;58902;51.436;5.980;2022-12-13T00:16:59;31.45;30.21;33.01;;
71020;Laerm;58902;51.436;5.980;2022-12-13T00:17:10;31.67;30.18;34.21;;
71020;Laerm;58902;51.436;5.980;2022-12-13T00:17:20;32.09;30.45;39.34;;
71020;Laerm;58902;51.436;5.980;2022-12-13T00:17:31;31.63;29.82;33.07;;
71020;Laerm;58902;51.436;5.980;2022-12-13T00:17:41;32.31;30.44;35.13;;
71020;Laerm;58902;51.436;5.980;2022-12-13T00:17:51;33.28;31.96;34.44;;
71020;Laerm;58902;51.436;5.980;2022-12-13T00:18:02;33.17;31.86;34.35;;
71020;Laerm;58902;51.436;5.980;2022-12-13T00:18:12;32.67;30.35;35.44;;
71020;Laerm;58902;51.436;5.980;2022-12-13T00:18:22;31.49;29.99;33.05;;
71020;Laerm;58902;51.436;5.980;2022-12-13T00:18:33;32.86;30.30;37.49;;
71020;Laerm;58902;51.436;5.980;2022-12-13T00:18:46;37.29;32.47;43.56;;
71020;Laerm;58902;51.436;5.980;2022-12-13T00:18:57;37.80;35.65;40.66;;
71020;Laerm;58902;51.436;5.980;2022-12-13T00:19:08;37.08;32.74;41.25;;
71020;Laerm;58902;51.436;5.980;2022-12-13T00:19:19;35.13;31.72;38.29;;
71020;Laerm;58902;51.436;5.980;2022-12-13T00:19:29;34.20;31.90;39.35;;
71020;Laerm;58902;51.436;5.980;2022-12-13T00:19:39;33.83;31.93;38.03;;
71020;Laerm;58902;51.436;5.980;2022-12-13T00:19:50;33.88;31.52;37.42;;
71020;Laerm;58902;51.436;5.980;2022-12-13T00:20:00;33.34;31.63;35.82;;
71020;Laerm;58902;51.436;5.980;2022-12-13T00:20:11;33.04;31.28;34.48;;
71020;Laerm;58902;51.436;5.980;2022-12-13T00:20:21;32.92;31.37;35.14;;
71020;Laerm;58902;51.436;5.980;2022-12-13T00:20:31;32.64;30.86;34.06;;
71020;Laerm;58902;51.436;5.980;2022-12-13T00:20:42;32.63;31.00;34.31;;
71020;Laerm;58902;51.436;5.980;2022-12-13T00:20:52;32.43;31.01;34.41;;
71020;Laerm;58902;51.436;5.980;2022-12-13T00:21:07;31.89;30.77;33.41;;
71020;Laerm;58902;51.436;5.980;2022-12-13T00:21:19;32.41;30.97;34.16;;
71020;Laerm;58902;51.436;5.980;2022-12-13T00:21:30;32.41;30.88;33.81;;
71020;Laerm;58902;51.436;5.980;2022-12-13T00:21:41;32.22;30.27;34.45;;
71020;Laerm;58902;51.436;5.980;2022-12-13T00:21:51;32.36;30.56;34.21;;
71020;Laerm;58902;51.436;5.980;2022-12-13T00:22:02;31.92;30.19;33.54;;
71020;Laerm;58902;51.436;5.980;2022-12-13T00:22:12;32.05;30.72;33.61;;
71020;Laerm;58902;51.436;5.980;2022-12-13T00:22:23;32.34;30.13;35.33;;
71020;Laerm;58902;51.436;5.980;2022-12-13T00:22:34;32.48;30.75;33.86;;
71020;Laerm;58902;51.436;5.980;2022-12-13T00:22:44;32.33;30.64;34.15;;
71020;Laerm;58902;51.436;5.980;2022-12-13T00:22:54;32.36;30.26;33.63;;
71020;Laerm;58902;51.436;5.980;2022-12-13T00:23:05;32.67;31.40;34.03;;
71020;Laerm;58902;51.436;5.980;2022-12-13T00:23:15;32.68;31.20;34.76;;
71020;Laerm;58902;51.436;5.980;2022-12-13T00:23:25;32.44;30.99;33.96;;
71020;Laerm;58902;51.436;5.980;2022-12-13T00:23:37;32.40;30.96;34.15;;
71020;Laerm;58902;51.436;5.980;2022-12-13T00:23:48;31.74;30.12;33.18;;
71020;Laerm;58902;51.436;5.980;2022-12-13T00:23:59;32.10;30.64;33.73;;
71020;Laerm;58902;51.436;5.980;2022-12-13T00:24:10;33.72;30.86;45.52;;
71020;Laerm;58902;51.436;5.980;2022-12-13T00:24:20;32.73;29.79;37.08;;
71020;Laerm;58902;51.436;5.980;2022-12-13T00:24:30;33.09;31.90;34.40;;
71020;Laerm;58902;51.436;5.980;2022-12-13T00:24:41;33.88;32.55;35.21;;
71020;Laerm;58902;51.436;5.980;2022-12-13T00:24:54;33.66;30.24;36.20;;
71020;Laerm;58902;51.436;5.980;2022-12-13T00:25:05;30.67;29.35;32.35;;
71020;Laerm;58902;51.436;5.980;2022-12-13T00:25:16;30.56;29.50;32.25;;
71020;Laerm;58902;51.436;5.980;2022-12-13T00:25:28;34.27;29.76;36.57;;
71020;Laerm;58902;51.436;5.980;2022-12-13T00:25:39;36.11;34.87;37.17;;
71020;Laerm;58902;51.436;5.980;2022-12-13T00:25:49;34.97;31.99;36.71;;
71020;Laerm;58902;51.436;5.980;2022-12-13T00:26:03;31.90;30.07;35.67;;
71020;Laerm;58902;51.436;5.980;2022-12-13T00:26:15;30.96;29.70;32.60;;
71020;Laerm;58902;51.436;5.980;2022-12-13T00:26:27;31.40;30.24;39.44;;
71020;Laerm;58902;51.436;5.980;2022-12-13T00:26:37;30.80;29.07;32.79;;
71020;Laerm;58902;51.436;5.980;2022-12-13T00:26:47;30.37;29.20;31.65;;
71020;Laerm;58902;51.436;5.980;2022-12-13T00:26:58;30.34;29.22;31.56;;
71020;Laerm;58902;51.436;5.980;2022-12-13T00:27:08;30.25;29.26;32.64;;
71020;Laerm;58902;51.436;5.980;2022-12-13T00:27:18;30.18;28.91;31.45;;
71020;Laerm;58902;51.436;5.980;2022-12-13T00:27:29;30.17;28.87;31.60;;
71020;Laerm;58902;51.436;5.980;2022-12-13T00:27:39;30.15;28.89;31.55;;
71020;Laerm;58902;51.436;5.980;2022-12-13T00:27:50;30.20;28.82;31.31;;
71020;Laerm;58902;51.436;5.980;2022-12-13T00:28:00;30.20;29.02;31.48;;
71020;Laerm;58902;51.436;5.980;2022-12-13T00:28:11;29.75;28.69;31.29;;
71020;Laerm;58902;51.436;5.980;2022-12-13T00:28:21;29.44;28.21;35.88;;
71020;Laerm;58902;51.436;5.980;2022-12-13T00:28:31;29.37;28.11;30.70;;
71020;Laerm;58902;51.436;5.980;2022-12-13T00:28:42;29.42;28.23;30.77;;
71020;Laerm;58902;51.436;5.980;2022-12-13T00:28:52;29.54;28.17;31.27;;
71020;Laerm;58902;51.436;5.980;2022-12-13T00:29:03;29.66;28.59;31.44;;
71020;Laerm;58902;51.436;5.980;2022-12-13T00:29:14;29.73;28.46;31.40;;
71020;Laerm;58902;51.436;5.980;2022-12-13T00:29:24;29.69;28.52;30.80;;
71020;Laerm;58902;51.436;5.980;2022-12-13T00:29:35;29.83;28.65;32.12;;
71020;Laerm;58902;51.436;5.980;2022-12-13T00:29:45;30.57;28.84;45.51;;
71020;Laerm;58902;51.436;5.980;2022-12-13T00:29:56;29.88;28.63;31.62;;
71020;Laerm;58902;51.436;5.980;2022-12-13T00:30:06;29.87;28.62;31.84;;
71020;Laerm;58902;51.436;5.980;2022-12-13T00:30:16;29.88;28.56;31.81;;
71020;Laerm;58902;51.436;5.980;2022-12-13T00:30:27;30.13;28.78;31.76;;
71020;Laerm;58902;51.436;5.980;2022-12-13T00:30:40;30.12;28.95;31.42;;
71020;Laerm;58902;51.436;5.980;2022-12-13T00:30:51;30.07;28.89;31.44;;
71020;Laerm;58902;51.436;5.980;2022-12-13T00:31:05;29.84;28.47;31.53;;
71020;Laerm;58902;51.436;5.980;2022-12-13T00:31:19;29.82;28.56;31.52;;
71020;Laerm;58902;51.436;5.980;2022-12-13T00:31:30;30.74;28.94;32.21;;
71020;Laerm;58902;51.436;5.980;2022-12-13T00:31:43;30.81;29.89;31.99;;
71020;Laerm;58902;51.436;5.980;2022-12-13T00:31:53;32.18;29.45;34.51;;
71020;Laerm;58902;51.436;5.980;2022-12-13T00:32:03;33.50;32.48;34.34;;
71020;Laerm;58902;51.436;5.980;2022-12-13T00:32:14;33.27;32.38;34.16;;
71020;Laerm;58902;51.436;5.980;2022-12-13T00:32:24;32.23;29.59;34.04;;
71020;Laerm;58902;51.436;5.980;2022-12-13T00:32:35;32.04;30.57;33.07;;
71020;Laerm;58902;51.436;5.980;2022-12-13T00:32:45;32.00;30.73;33.65;;
71020;Laerm;58902;51.436;5.980;2022-12-13T00:32:55;31.05;29.70;33.18;;
71020;Laerm;58902;51.436;5.980;2022-12-13T00:33:06;31.41;29.84;33.86;;
71020;Laerm;58902;51.436;5.980;2022-12-13T00:33:16;32.58;31.39;34.35;;
71020;Laerm;58902;51.436;5.980;2022-12-13T00:33:27;31.27;30.00;34.22;;
71020;Laerm;58902;51.436;5.980;2022-12-13T00:33:38;31.10;29.71;32.66;;
71020;Laerm;58902;51.436;5.980;2022-12-13T00:33:49;32.62;30.47;41.82;;
71020;Laerm;58902;51.436;5.980;2022-12-13T00:33:59;35.39;34.15;36.90;;
71020;Laerm;58902;51.436;5.980;2022-12-13T00:34:09;34.87;33.89;36.29;;
71020;Laerm;58902;51.436;5.980;2022-12-13T00:34:20;35.02;30.58;40.88;;
71020;Laerm;58902;51.436;5.980;2022-12-13T00:34:30;31.64;30.45;32.72;;
71020;Laerm;58902;51.436;5.980;2022-12-13T00:34:41;31.65;30.50;32.66;;
71020;Laerm;58902;51.436;5.980;2022-12-13T00:34:51;31.29;29.83;32.44;;
71020;Laerm;58902;51.436;5.980;2022-12-13T00:35:01;31.91;30.02;37.91;;
71020;Laerm;58902;51.436;5.980;2022-12-13T00:35:12;33.21;30.35;36.35;;
71020;Laerm;58902;51.436;5.980;2022-12-13T00:35:22;35.60;32.69;38.74;;
71020;Laerm;58902;51.436;5.980;2022-12-13T00:35:33;38.00;32.63;42.39;;
71020;Laerm;58902;51.436;5.980;2022-12-13T00:35:48;37.15;32.90;42.88;;
71020;Laerm;58902;51.436;5.980;2022-12-13T00:35:58;34.89;32.19;38.34;;
71020;Laerm;58902;51.436;5.980;2022-12-13T00:36:09;40.99;30.98;53.19;;
71020;Laerm;58902;51.436;5.980;2022-12-13T00:36:19;34.96;32.83;38.13;;
71020;Laerm;58902;51.436;5.980;2022-12-13T00:36:29;34.68;31.43;47.65;;
71020;Laerm;58902;51.436;5.980;2022-12-13T00:36:40;33.47;30.75;37.54;;
71020;Laerm;58902;51.436;5.980;2022-12-13T00:36:52;34.09;31.12;41.43;;
71020;Laerm;58902;51.436;5.980;2022-12-13T00:37:02;32.45;30.29;34.87;;
71020;Laerm;58902;51.436;5.980;2022-12-13T00:37:12;32.59;30.55;34.32;;
71020;Laerm;58902;51.436;5.980;2022-12-13T00:37:23;32.31;30.16;34.72;;
71020;Laerm;58902;51.436;5.980;2022-12-13T00:37:33;30.80;29.42;32.73;;
71020;Laerm;58902;51.436;5.980;2022-12-13T00:37:43;40.63;29.34;46.37;;
71020;Laerm;58902;51.436;5.980;2022-12-13T00:37:54;41.39;34.60;45.37;;
71020;Laerm;58902;51.436;5.980;2022-12-13T00:38:04;36.17;33.39;40.73;;
71020;Laerm;58902;51.436;5.980;2022-12-13T00:38:14;36.36;32.60;39.28;;
71020;Laerm;58902;51.436;5.980;2022-12-13T00:38:25;36.61;33.79;39.65;;
71020;Laerm;58902;51.436;5.980;2022-12-13T00:38:35;45.24;34.67;58.24;;
71020;Laerm;58902;51.436;5.980;2022-12-13T00:38:46;72.59;57.45;80.77;;
71020;Laerm;58902;51.436;5.980;2022-12-13T00:39:09;68.33;48.63;73.83;;
71020;Laerm;58902;51.436;5.980;2022-12-13T00:39:21;45.84;40.16;50.02;;
71020;Laerm;58902;51.436;5.980;2022-12-13T00:39:32;40.89;38.08;49.11;;
71020;Laerm;58902;51.436;5.980;2022-12-13T00:39:42;39.02;35.34;43.20;;
71020;Laerm;58902;51.436;5.980;2022-12-13T00:39:53;38.14;35.10;42.60;;
71020;Laerm;58902;51.436;5.980;2022-12-13T00:40:03;34.94;32.60;37.71;;
71020;Laerm;58902;51.436;5.980;2022-12-13T00:40:13;33.67;31.93;35.48;;
71020;Laerm;58902;51.436;5.980;2022-12-13T00:40:26;32.75;31.14;34.51;;
71020;Laerm;58902;51.436;5.980;2022-12-13T00:40:37;32.35;30.76;34.62;;
71020;Laerm;58902;51.436;5.980;2022-12-13T00:40:47;32.11;30.37;34.75;;
71020;Laerm;58902;51.436;5.980;2022-12-13T00:40:57;32.02;30.06;34.52;;
71020;Laerm;58902;51.436;5.980;2022-12-13T00:41:08;31.24;29.68;33.15;;
71020;Laerm;58902;51.436;5.980;2022-12-13T00:41:19;30.87;29.53;37.79;;
71020;Laerm;58902;51.436;5.980;2022-12-13T00:41:30;30.75;29.58;32.33;;
71020;Laerm;58902;51.436;5.980;2022-12-13T00:41:41;30.66;29.42;31.78;;
71020;Laerm;58902;51.436;5.980;2022-12-13T00:41:52;30.54;29.35;31.79;;
71020;Laerm;58902;51.436;5.980;2022-12-13T00:42:03;30.72;29.28;32.75;;
71020;Laerm;58902;51.436;5.980;2022-12-13T00:42:13;30.88;29.54;32.29;;
71020;Laerm;58902;51.436;5.980;2022-12-13T00:42:24;30.86;29.37;33.57;;
71020;Laerm;58902;51.436;5.980;2022-12-13T00:42:34;31.57;30.24;33.20;;
71020;Laerm;58902;51.436;5.980;2022-12-13T00:42:44;31.91;30.04;47.28;;
71020;Laerm;58902;51.436;5.980;2022-12-13T00:42:55;31.02;29.65;32.05;;
71020;Laerm;58902;51.436;5.980;2022-12-13T00:43:05;31.26;29.55;33.33;;
71020;Laerm;58902;51.436;5.980;2022-12-13T00:43:16;31.15;29.86;33.70;;
71020;Laerm;58902;51.436;5.980;2022-12-13T00:43:26;31.23;30.10;32.60;;
71020;Laerm;58902;51.436;5.980;2022-12-13T00:43:37;32.24;29.73;34.72;;
71020;Laerm;58902;51.436;5.980;2022-12-13T00:43:47;32.65;30.93;33.76;;
71020;Laerm;58902;51.436;5.980;2022-12-13T00:43:58;32.11;30.73;33.50;;
71020;Laerm;58902;51.436;5.980;2022-12-13T00:44:09;31.24;29.93;33.36;;
71020;Laerm;58902;51.436;5.980;2022-12-13T00:44:20;30.88;29.49;32.16;;
71020;Laerm;58902;51.436;5.980;2022-12-13T00:44:30;31.49;29.74;34.37;;
71020;Laerm;58902;51.436;5.980;2022-12-13T00:44:40;33.47;30.25;39.94;;
71020;Laerm;58902;51.436;5.980;2022-12-13T00:44:51;31.35;29.94;32.74;;
71020;Laerm;58902;51.436;5.980;2022-12-13T00:45:01;31.64;30.20;32.87;;
71020;Laerm;58902;51.436;5.980;2022-12-13T00:45:11;31.99;30.92;33.08;;
71020;Laerm;58902;51.436;5.980;2022-12-13T00:45:22;31.61;30.48;33.20;;
71020;Laerm;58902;51.436;5.980;2022-12-13T00:45:32;31.62;30.19;33.20;;
71020;Laerm;58902;51.436;5.980;2022-12-13T00:45:43;31.88;30.55;33.21;;
71020;Laerm;58902;51.436;5.980;2022-12-13T00:45:53;31.74;30.02;33.34;;
71020;Laerm;58902;51.436;5.980;2022-12-13T00:46:04;31.86;30.10;33.27;;
71020;Laerm;58902;51.436;5.980;2022-12-13T00:46:16;31.87;30.33;33.58;;
71020;Laerm;58902;51.436;5.980;2022-12-13T00:46:27;31.69;30.09;33.53;;
71020;Laerm;58902;51.436;5.980;2022-12-13T00:46:38;32.75;30.33;34.23;;
71020;Laerm;58902;51.436;5.980;2022-12-13T00:46:48;33.26;31.87;34.63;;
71020;Laerm;58902;51.436;5.980;2022-12-13T00:47:00;33.36;31.54;37.15;;
71020;Laerm;58902;51.436;5.980;2022-12-13T00:47:11;32.55;31.28;34.25;;
71020;Laerm;58902;51.436;5.980;2022-12-13T00:47:21;32.76;31.20;34.39;;
71020;Laerm;58902;51.436;5.980;2022-12-13T00:47:31;33.20;31.19;35.77;;
71020;Laerm;58902;51.436;5.980;2022-12-13T00:47:42;34.14;32.26;36.10;;
71020;Laerm;58902;51.436;5.980;2022-12-13T00:47:52;36.04;32.74;52.37;;
71020;Laerm;58902;51.436;5.980;2022-12-13T00:48:03;34.51;32.49;36.98;;
71020;Laerm;58902;51.436;5.980;2022-12-13T00:48:13;33.77;32.19;35.27;;
71020;Laerm;58902;51.436;5.980;2022-12-13T00:48:24;33.71;32.06;35.39;;
71020;Laerm;58902;51.436;5.980;2022-12-13T00:48:34;33.72;32.24;35.46;;
71020;Laerm;58902;51.436;5.980;2022-12-13T00:48:48;33.65;32.34;35.37;;
71020;Laerm;58902;51.436;5.980;2022-12-13T00:48:59;33.85;32.05;36.26;;
71020;Laerm;58902;51.436;5.980;2022-12-13T00:49:10;33.81;32.38;35.74;;
71020;Laerm;58902;51.436;5.980;2022-12-13T00:49:21;33.91;32.17;35.87;;
71020;Laerm;58902;51.436;5.980;2022-12-13T00:49:31;34.19;32.38;35.90;;
71020;Laerm;58902;51.436;5.980;2022-12-13T00:49:42;34.26;32.51;35.84;;
71020;Laerm;58902;51.436;5.980;2022-12-13T00:49:52;34.14;32.40;35.98;;
71020;Laerm;58902;51.436;5.980;2022-12-13T00:50:03;33.74;31.38;35.30;;
71020;Laerm;58902;51.436;5.980;2022-12-13T00:50:13;32.69;30.99;34.42;;
71020;Laerm;58902;51.436;5.980;2022-12-13T00:50:24;31.51;30.02;33.68;;
71020;Laerm;58902;51.436;5.980;2022-12-13T00:50:34;31.26;29.58;32.97;;
71020;Laerm;58902;51.436;5.980;2022-12-13T00:50:46;31.12;29.55;32.55;;
71020;Laerm;58902;51.436;5.980;2022-12-13T00:50:57;31.29;29.53;36.18;;
71020;Laerm;58902;51.436;5.980;2022-12-13T00:51:07;30.82;29.62;32.33;;
71020;Laerm;58902;51.436;5.980;2022-12-13T00:51:18;30.74;29.59;31.91;;
71020;Laerm;58902;51.436;5.980;2022-12-13T00:51:29;30.68;29.11;32.57;;
71020;Laerm;58902;51.436;5.980;2022-12-13T00:51:40;30.55;29.33;31.67;;
71020;Laerm;58902;51.436;5.980;2022-12-13T00:51:51;30.93;29.52;32.21;;
71020;Laerm;58902;51.436;5.980;2022-12-13T00:52:01;30.90;29.51;32.24;;
71020;Laerm;58902;51.436;5.980;2022-12-13T00:52:11;30.48;29.17;31.88;;
71020;Laerm;58902;51.436;5.980;2022-12-13T00:52:22;30.72;29.19;33.21;;
71020;Laerm;58902;51.436;5.980;2022-12-13T00:52:43;32.47;31.27;34.25;;
71020;Laerm;58902;51.436;5.980;2022-12-13T00:52:53;31.92;29.85;33.74;;
71020;Laerm;58902;51.436;5.980;2022-12-13T00:53:04;31.69;30.12;33.09;;
71020;Laerm;58902;51.436;5.980;2022-12-13T00:53:14;31.63;30.15;33.25;;
71020;Laerm;58902;51.436;5.980;2022-12-13T00:53:25;32.35;30.36;34.40;;
71020;Laerm;58902;51.436;5.980;2022-12-13T00:53:35;33.45;31.60;35.74;;
71020;Laerm;58902;51.436;5.980;2022-12-13T00:53:45;34.48;31.85;36.42;;
71020;Laerm;58902;51.436;5.980;2022-12-13T00:53:56;31.97;30.26;33.60;;
71020;Laerm;58902;51.436;5.980;2022-12-13T00:54:07;31.36;29.78;33.46;;
71020;Laerm;58902;51.436;5.980;2022-12-13T00:54:17;31.31;30.07;32.52;;
71020;Laerm;58902;51.436;5.980;2022-12-13T00:54:27;31.70;29.58;32.97;;
71020;Laerm;58902;51.436;5.980;2022-12-13T00:54:38;34.39;31.16;35.81;;
71020;Laerm;58902;51.436;5.980;2022-12-13T00:54:48;35.72;34.17;37.00;;
71020;Laerm;58902;51.436;5.980;2022-12-13T00:54:58;37.27;35.16;54.18;;
71020;Laerm;58902;51.436;5.980;2022-12-13T00:55:09;36.09;35.24;37.03;;
71020;Laerm;58902;51.436;5.980;2022-12-13T00:55:19;33.79;29.82;36.76;;
71020;Laerm;58902;51.436;5.980;2022-12-13T00:55:29;31.55;30.35;32.99;;
71020;Laerm;58902;51.436;5.980;2022-12-13T00:55:40;31.43;30.26;33.03;;
71020;Laerm;58902;51.436;5.980;2022-12-13T00:55:50;33.38;30.31;35.41;;
71020;Laerm;58902;51.436;5.980;2022-12-13T00:56:01;34.81;33.43;36.41;;
71020;Laerm;58902;51.436;5.980;2022-12-13T00:56:12;35.86;33.05;38.25;;
71020;Laerm;58902;51.436;5.980;2022-12-13T00:56:23;35.55;31.66;39.33;;
71020;Laerm;58902;51.436;5.980;2022-12-13T00:56:35;37.72;33.29;41.22;;
71020;Laerm;58902;51.436;5.980;2022-12-13T00:56:46;39.22;35.63;42.03;;
71020;Laerm;58902;51.436;5.980;2022-12-13T00:56:56;39.10;36.20;42.39;;
71020;Laerm;58902;51.436;5.980;2022-12-13T00:57:07;37.72;34.74;40.11;;
71020;Laerm;58902;51.436;5.980;2022-12-13T00:57:17;37.05;34.22;39.51;;
71020;Laerm;58902;51.436;5.980;2022-12-13T00:57:27;35.41;33.01;38.16;;
71020;Laerm;58902;51.436;5.980;2022-12-13T00:57:38;35.56;33.00;38.27;;
71020;Laerm;58902;51.436;5.980;2022-12-13T00:57:48;35.12;32.29;39.22;;
71020;Laerm;58902;51.436;5.980;2022-12-13T00:57:58;34.61;32.98;36.77;;
71020;Laerm;58902;51.436;5.980;2022-12-13T00:58:09;34.39;32.85;36.69;;
71020;Laerm;58902;51.436;5.980;2022-12-13T00:58:19;33.45;30.17;36.19;;
71020;Laerm;58902;51.436;5.980;2022-12-13T00:58:29;31.86;30.32;33.47;;
71020;Laerm;58902;51.436;5.980;2022-12-13T00:58:40;31.85;30.46;33.34;;
71020;Laerm;58902;51.436;5.980;2022-12-13T00:58:51;33.66;30.22;36.28;;
71020;Laerm;58902;51.436;5.980;2022-12-13T00:59:01;34.63;32.47;36.33;;
71020;Laerm;58902;51.436;5.980;2022-12-13T00:59:12;34.72;31.89;36.14;;
71020;Laerm;58902;51.436;5.980;2022-12-13T00:59:23;32.15;29.67;36.05;;
71020;Laerm;58902;51.436;5.980;2022-12-13T00:59:33;30.78;29.80;32.00;;
71020;Laerm;58902;51.436;5.980;2022-12-13T00:59:44;31.17;29.80;33.03;;
71020;Laerm;58902;51.436;5.980;2022-12-13T00:59:54;34.15;30.82;36.36;;
71020;Laerm;58902;51.436;5.980;2022-12-13T01:00:05;34.84;33.66;36.25;;
71020;Laerm;58902;51.436;5.980;2022-12-13T01:00:16;34.29;30.17;36.45;;
71020;Laerm;58902;51.436;5.980;2022-12-13T01:00:26;31.78;30.62;33.00;;
71020;Laerm;58902;51.436;5.980;2022-12-13T01:00:36;31.90;30.85;33.01;;
71020;Laerm;58902;51.436;5.980;2022-12-13T01:00:47;32.10;30.77;33.74;;